createdAt,value
2022-09-26T00:01:42.525Z,6.80
2022-09-26T00:04:32.791Z,6.63
2022-09-26T00:07:00.214Z,7.17
2022-09-26T00:09:28.384Z,7.43
2022-09-26T00:11:55.855Z,8.13
2022-09-26T00:14:26.062Z,7.50
2022-09-26T00:16:53.688Z,7.60
2022-09-26T00:19:21.363Z,7.77
2022-09-26T00:21:48.485Z,8.40
2022-09-26T00:24:16.050Z,7.60
2022-09-26T00:26:42.909Z,7.57
2022-09-26T00:29:12.425Z,7.50
2022-09-26T00:31:48.723Z,8.33
2022-09-26T00:34:25.792Z,7.00
2022-09-26T00:36:55.799Z,6.40
2022-09-26T00:39:22.533Z,6.13
2022-09-26T00:41:49.235Z,5.87
2022-09-26T00:44:35.123Z,5.53
2022-09-26T00:47:02.386Z,5.93
2022-09-26T00:49:43.214Z,5.57
2022-09-26T00:52:26.458Z,6.13
2022-09-26T00:54:56.766Z,6.20
2022-09-26T00:57:29.636Z,6.43
2022-09-26T01:00:05.307Z,6.17
2022-09-26T01:02:32.449Z,6.30
2022-09-26T01:05:00.381Z,6.60
2022-09-26T01:07:29.639Z,6.40
2022-09-26T01:09:57.976Z,7.30
2022-09-26T01:12:24.752Z,7.10
2022-09-26T01:14:54.232Z,7.57
2022-09-26T01:17:23.124Z,7.93
2022-09-26T01:20:18.210Z,7.67
2022-09-26T01:23:09.838Z,7.60
2022-09-26T01:26:31.038Z,7.67
2022-09-26T01:29:39.062Z,6.83
2022-09-26T01:32:49.527Z,7.60
2022-09-26T01:35:40.434Z,7.83
2022-09-26T01:38:24.843Z,8.83
2022-09-26T01:41:10.183Z,8.40
2022-09-26T01:44:21.913Z,9.10
2022-09-26T01:46:55.193Z,8.27
2022-09-26T01:49:24.833Z,8.97
2022-09-26T01:52:08.583Z,8.97
2022-09-26T01:54:45.840Z,8.43
2022-09-26T01:57:20.068Z,7.07
2022-09-26T01:59:53.356Z,7.87
2022-09-26T02:02:26.858Z,6.83
2022-09-26T02:05:26.779Z,6.93
2022-09-26T02:08:02.578Z,7.33
2022-09-26T02:10:37.870Z,7.63
2022-09-26T02:13:18.650Z,7.80
2022-09-26T02:15:49.629Z,8.13
2022-09-26T02:18:39.771Z,8.10
2022-09-26T02:21:16.773Z,9.33
2022-09-26T02:23:55.852Z,8.47
2022-09-26T02:26:24.365Z,8.40
2022-09-26T02:28:51.094Z,9.63
2022-09-26T02:31:22.050Z,7.63
2022-09-26T02:33:50.527Z,8.13
2022-09-26T02:36:21.686Z,6.70
2022-09-26T02:38:51.124Z,6.70
2022-09-26T02:41:28.185Z,6.90
2022-09-26T02:44:09.888Z,7.43
2022-09-26T02:46:39.914Z,6.53
2022-09-26T02:49:31.686Z,6.47
2022-09-26T02:52:18.585Z,6.57
2022-09-26T02:55:23.289Z,6.43
2022-09-26T02:58:15.957Z,6.23
2022-09-26T03:01:14.873Z,5.90
2022-09-26T03:04:14.934Z,5.93
2022-09-26T03:06:49.347Z,6.70
2022-09-26T03:09:18.837Z,6.80
2022-09-26T03:11:47.625Z,6.83
2022-09-26T03:14:16.484Z,7.00
2022-09-26T03:16:48.403Z,7.13
2022-09-26T03:19:29.569Z,6.90
2022-09-26T03:21:57.187Z,7.10
2022-09-26T03:24:24.813Z,7.10
2022-09-26T03:26:51.767Z,6.97
2022-09-26T03:29:20.306Z,7.30
2022-09-26T03:31:50.303Z,7.00
2022-09-26T03:34:17.882Z,7.90
2022-09-26T03:36:45.943Z,6.63
2022-09-26T03:39:13.010Z,6.43
2022-09-26T03:41:40.118Z,6.77
2022-09-26T03:44:07.634Z,6.47
2022-09-26T03:46:40.081Z,6.87
2022-09-26T03:49:07.229Z,7.37
2022-09-26T03:51:34.033Z,7.67
2022-09-26T03:54:00.797Z,7.40
2022-09-26T03:56:27.767Z,8.20
2022-09-26T03:58:54.531Z,8.50
2022-09-26T04:01:23.218Z,7.87
2022-09-26T04:03:53.137Z,8.07
2022-09-26T04:06:21.069Z,7.37
2022-09-26T04:08:51.500Z,7.13
2022-09-26T04:11:20.836Z,7.30
2022-09-26T04:13:53.555Z,7.63
2022-09-26T04:16:22.654Z,6.60
2022-09-26T04:18:50.288Z,7.67
2022-09-26T04:21:17.126Z,7.50
2022-09-26T04:23:44.477Z,6.50
2022-09-26T04:26:18.706Z,6.93
2022-09-26T04:28:52.099Z,6.37
2022-09-26T04:31:27.885Z,6.67
2022-09-26T04:33:56.738Z,6.63
2022-09-26T04:36:23.795Z,6.30
2022-09-26T04:38:50.775Z,5.83
2022-09-26T04:41:29.145Z,6.33
2022-09-26T04:43:57.490Z,6.57
2022-09-26T04:46:30.755Z,5.77
2022-09-26T04:49:02.543Z,5.80
2022-09-26T04:51:31.664Z,5.47
2022-09-26T04:53:58.560Z,5.33
2022-09-26T04:56:27.499Z,5.40
2022-09-26T04:58:56.559Z,4.77
2022-09-26T05:01:23.775Z,5.10
2022-09-26T05:03:50.555Z,5.10
2022-09-26T05:06:18.109Z,4.90
2022-09-26T05:08:46.825Z,5.27
2022-09-26T05:11:15.845Z,5.03
2022-09-26T05:13:42.552Z,5.33
2022-09-26T05:16:11.583Z,4.93
2022-09-26T05:18:39.357Z,4.70
2022-09-26T05:21:07.605Z,4.40
2022-09-26T05:23:55.021Z,3.97
2022-09-26T05:26:23.862Z,5.00
2022-09-26T05:29:07.651Z,4.97
2022-09-26T05:31:40.919Z,5.00
2022-09-26T05:34:18.372Z,4.73
2022-09-26T05:36:46.105Z,4.70
2022-09-26T05:39:31.485Z,4.77
2022-09-26T05:41:59.450Z,5.43
2022-09-26T05:44:27.030Z,5.43
2022-09-26T05:46:53.767Z,4.77
2022-09-26T05:49:23.909Z,4.73
2022-09-26T05:51:51.387Z,4.27
2022-09-26T05:54:18.109Z,4.40
2022-09-26T05:56:44.869Z,4.50
2022-09-26T05:59:11.677Z,4.87
2022-09-26T06:01:38.528Z,4.90
2022-09-26T06:04:05.528Z,5.87
2022-09-26T06:06:32.319Z,4.17
2022-09-26T06:09:00.349Z,5.87
2022-09-26T06:11:32.775Z,3.83
2022-09-26T06:14:01.189Z,4.13
2022-09-26T06:16:31.047Z,3.63
2022-09-26T06:18:58.691Z,3.73
2022-09-26T06:21:25.723Z,3.10
2022-09-26T06:23:52.385Z,3.03
2022-09-26T06:26:21.885Z,3.17
2022-09-26T06:28:58.455Z,3.27
2022-09-26T06:31:26.303Z,3.30
2022-09-26T06:33:55.844Z,3.10
2022-09-26T06:36:25.988Z,3.40
2022-09-26T06:38:55.027Z,3.30
2022-09-26T06:41:21.899Z,2.90
2022-09-26T06:43:49.151Z,3.10
2022-09-26T06:46:16.617Z,3.60
2022-09-26T06:48:44.050Z,3.30
2022-09-26T06:51:14.697Z,3.57
2022-09-26T06:53:42.960Z,3.13
2022-09-26T06:56:09.728Z,2.93
2022-09-26T06:58:36.651Z,3.93
2022-09-26T07:01:04.109Z,3.40
2022-09-26T07:03:31.611Z,3.63
2022-09-26T07:05:59.099Z,3.13
2022-09-26T07:08:50.130Z,3.40
2022-09-26T07:11:35.019Z,3.60
2022-09-26T07:14:03.225Z,3.50
2022-09-26T07:19:14.918Z,2.93
2022-09-26T07:21:42.232Z,3.50
2022-09-26T07:24:14.357Z,2.87
2022-09-26T07:26:42.159Z,3.33
2022-09-26T07:29:10.046Z,2.93
2022-09-26T07:31:39.343Z,3.00
2022-09-26T07:34:07.692Z,3.37
2022-09-26T07:36:34.972Z,2.97
2022-09-26T07:39:02.488Z,2.90
2022-09-26T07:41:31.369Z,2.60
2022-09-26T07:47:11.392Z,3.07
2022-09-26T07:49:57.064Z,3.63
2022-09-26T07:52:31.020Z,3.13
2022-09-26T07:54:57.838Z,2.67
2022-09-26T07:57:24.969Z,2.73
2022-09-26T07:59:54.494Z,2.50
2022-09-26T08:02:28.759Z,2.37
2022-09-26T08:05:01.063Z,2.50
2022-09-26T08:07:28.214Z,2.73
2022-09-26T08:09:55.295Z,3.07
2022-09-26T08:12:22.488Z,2.60
2022-09-26T08:14:52.440Z,2.60
2022-09-26T08:17:22.455Z,2.50
2022-09-26T08:19:49.662Z,2.50
2022-09-26T08:22:24.289Z,2.60
2022-09-26T08:25:00.148Z,2.80
2022-09-26T08:27:32.346Z,2.87
2022-09-26T08:29:59.306Z,3.27
2022-09-26T08:32:27.160Z,3.00
2022-09-26T08:34:53.893Z,3.40
2022-09-26T08:37:21.103Z,3.77
2022-09-26T08:39:48.742Z,3.53
2022-09-26T08:42:34.351Z,4.03
2022-09-26T08:45:47.784Z,3.10
2022-09-26T08:48:48.500Z,3.47
2022-09-26T08:51:37.830Z,2.90
2022-09-26T08:54:34.980Z,2.70
2022-09-26T08:57:15.370Z,2.80
2022-09-26T08:59:46.023Z,3.17
2022-09-26T09:02:41.482Z,3.10
2022-09-26T09:05:30.418Z,3.07
2022-09-26T09:08:07.259Z,3.00
2022-09-26T09:10:53.566Z,3.20
2022-09-26T09:13:42.913Z,3.00
2022-09-26T09:16:24.649Z,3.20
2022-09-26T09:19:22.896Z,3.00
2022-09-26T09:22:03.057Z,3.10
2022-09-26T09:24:47.382Z,2.93
2022-09-26T09:30:48.199Z,3.00
2022-09-26T09:33:22.449Z,2.63
2022-09-26T09:35:59.460Z,2.80
2022-09-26T09:38:30.493Z,2.90
2022-09-26T09:41:09.117Z,2.30
2022-09-26T09:43:42.107Z,2.53
2022-09-26T09:46:15.421Z,2.50
2022-09-26T09:48:48.106Z,2.20
2022-09-26T09:51:36.832Z,2.60
2022-09-26T09:54:30.609Z,2.60
2022-09-26T09:57:07.857Z,3.17
2022-09-26T10:00:12.184Z,3.30
2022-09-26T10:03:02.808Z,2.97
2022-09-26T10:05:41.710Z,2.77
2022-09-26T10:08:31.470Z,3.03
2022-09-26T10:11:21.518Z,2.87
2022-09-26T10:13:53.926Z,2.60
2022-09-26T10:16:25.561Z,2.50
2022-09-26T10:18:54.083Z,2.40
2022-09-26T10:21:21.376Z,2.33
2022-09-26T10:23:50.753Z,2.30
2022-09-26T10:26:29.185Z,2.23
2022-09-26T10:29:21.394Z,1.83
2022-09-26T10:31:58.688Z,1.70
2022-09-26T10:34:30.648Z,1.63
2022-09-26T10:36:59.864Z,1.53
2022-09-26T10:39:49.049Z,1.77
2022-09-26T10:42:21.074Z,1.80
2022-09-26T10:44:49.293Z,2.23
2022-09-26T10:47:20.795Z,1.77
2022-09-26T10:50:08.547Z,1.70
2022-09-26T10:52:47.312Z,1.57
2022-09-26T10:55:32.346Z,1.90
2022-09-26T10:58:10.041Z,2.00
2022-09-26T11:00:50.741Z,2.20
2022-09-26T11:03:24.783Z,1.83
2022-09-26T11:06:00.435Z,1.70
2022-09-26T11:08:38.216Z,1.43
2022-09-26T11:11:12.595Z,1.70
2022-09-26T11:13:51.029Z,1.50
2022-09-26T11:16:20.750Z,1.50
2022-09-26T11:18:50.658Z,2.03
2022-09-26T11:21:35.134Z,2.20
2022-09-26T11:24:43.389Z,1.90
2022-09-26T11:27:23.574Z,1.80
2022-09-26T11:29:59.391Z,1.53
2022-09-26T11:32:40.983Z,1.60
2022-09-26T11:35:29.240Z,1.70
2022-09-26T11:38:26.636Z,2.00
2022-09-26T11:41:19.354Z,1.77
2022-09-26T11:44:23.466Z,1.70
2022-09-26T11:47:04.869Z,1.80
2022-09-26T11:49:58.605Z,1.83
2022-09-26T11:52:53.386Z,2.00
2022-09-26T11:55:24.713Z,2.00
2022-09-26T11:58:18.918Z,1.70
2022-09-26T12:01:08.098Z,1.83
2022-09-26T12:03:56.532Z,1.80
2022-09-26T12:06:48.550Z,1.90
2022-09-26T12:09:52.858Z,1.67
2022-09-26T12:12:34.072Z,1.50
2022-09-26T12:15:44.440Z,1.70
2022-09-26T12:18:36.650Z,1.70
2022-09-26T12:21:22.481Z,1.70
2022-09-26T12:24:24.960Z,1.73
2022-09-26T12:26:59.347Z,3.37
2022-09-26T12:29:49.141Z,2.83
2022-09-26T12:32:47.690Z,3.60
2022-09-26T12:35:20.468Z,6.10
2022-09-26T12:38:16.537Z,7.43
2022-09-26T12:40:53.151Z,8.30
2022-09-26T12:43:47.129Z,2.67
2022-09-26T12:46:17.093Z,2.73
2022-09-26T12:49:03.894Z,11.03
2022-09-26T12:51:48.494Z,8.93
2022-09-26T12:54:33.076Z,11.57
2022-09-26T12:57:04.669Z,3.80
2022-09-26T13:00:10.841Z,2.27
2022-09-26T13:02:58.686Z,2.97
2022-09-26T13:05:49.846Z,2.17
2022-09-26T13:08:37.410Z,2.23
2022-09-26T13:11:32.364Z,2.40
2022-09-26T13:14:30.983Z,2.57
2022-09-26T13:17:06.129Z,2.63
2022-09-26T13:19:40.773Z,2.60
2022-09-26T13:22:46.516Z,2.50
2022-09-26T13:25:22.377Z,2.20
2022-09-26T13:28:05.119Z,2.37
2022-09-26T13:30:39.433Z,2.13
2022-09-26T13:33:23.190Z,3.10
2022-09-26T13:35:53.513Z,2.60
2022-09-26T13:38:23.449Z,5.10
2022-09-26T13:41:14.537Z,2.30
2022-09-26T13:44:11.513Z,2.33
2022-09-26T13:47:20.657Z,2.60
2022-09-26T13:50:16.088Z,2.20
2022-09-26T13:52:43.262Z,2.27
2022-09-26T13:55:11.026Z,2.30
2022-09-26T13:57:49.847Z,1.93
2022-09-26T14:00:23.841Z,2.40
2022-09-26T14:03:18.407Z,2.27
2022-09-26T14:05:47.054Z,2.20
2022-09-26T14:08:51.709Z,2.47
2022-09-26T14:11:35.544Z,2.20
2022-09-26T14:14:21.641Z,2.17
2022-09-26T14:16:49.302Z,2.10
2022-09-26T14:19:36.722Z,2.37
2022-09-26T14:22:21.343Z,2.30
2022-09-26T14:24:49.554Z,2.27
2022-09-26T14:27:41.609Z,2.00
2022-09-26T14:30:25.760Z,2.00
2022-09-26T14:33:03.378Z,2.30
2022-09-26T14:35:39.048Z,3.17
2022-09-26T14:38:15.982Z,2.83
2022-09-26T14:40:58.205Z,3.30
2022-09-26T14:43:31.442Z,2.70
2022-09-26T14:46:05.342Z,2.40
2022-09-26T14:48:38.300Z,2.70
2022-09-26T14:51:11.142Z,1.80
2022-09-26T14:53:40.730Z,2.23
2022-09-26T14:56:09.109Z,3.23
2022-09-26T14:58:38.710Z,2.13
2022-09-26T15:01:19.943Z,2.60
2022-09-26T15:04:05.609Z,3.87
2022-09-26T15:06:52.994Z,4.13
2022-09-26T15:09:44.245Z,2.33
2022-09-26T15:12:23.655Z,2.27
2022-09-26T15:15:04.030Z,2.43
2022-09-26T15:17:40.952Z,7.57
2022-09-26T15:20:16.206Z,2.70
2022-09-26T15:22:55.294Z,2.60
2022-09-26T15:25:25.838Z,1.97
2022-09-26T15:27:54.587Z,2.40
2022-09-26T15:30:37.194Z,1.90
2022-09-26T15:33:04.360Z,2.77
2022-09-26T15:35:32.066Z,2.77
2022-09-26T15:38:09.714Z,3.37
2022-09-26T15:40:36.828Z,2.17
2022-09-26T15:43:09.683Z,2.57
2022-09-26T15:45:41.573Z,2.47
2022-09-26T15:48:20.692Z,2.30
2022-09-26T15:51:00.961Z,2.00
2022-09-26T15:53:47.577Z,1.90
2022-09-26T15:56:31.495Z,2.80
2022-09-26T15:59:23.585Z,2.80
2022-09-26T16:01:51.488Z,2.10
2022-09-26T16:04:36.696Z,2.20
2022-09-26T16:07:20.040Z,2.53
2022-09-26T16:09:50.899Z,2.20
2022-09-26T16:12:21.024Z,2.00
2022-09-26T16:14:59.941Z,2.10
2022-09-26T16:17:49.252Z,2.60
2022-09-26T16:20:16.269Z,3.13
2022-09-26T16:22:51.272Z,2.20
2022-09-26T16:25:20.905Z,2.10
2022-09-26T16:27:49.728Z,2.20
2022-09-26T16:30:41.857Z,2.10
2022-09-26T16:33:16.481Z,2.37
2022-09-26T16:35:49.267Z,2.30
2022-09-26T16:38:29.398Z,2.10
2022-09-26T16:41:00.808Z,2.00
2022-09-26T16:43:31.629Z,2.20
2022-09-26T16:46:00.584Z,3.13
2022-09-26T16:48:58.078Z,3.00
2022-09-26T16:51:26.106Z,1.90
2022-09-26T16:54:07.853Z,2.00
2022-09-26T16:56:43.062Z,2.17
2022-09-26T16:59:23.770Z,1.60
2022-09-26T17:01:54.588Z,2.03
2022-09-26T17:04:36.729Z,3.40
2022-09-26T17:07:24.056Z,3.80
2022-09-26T17:09:50.786Z,3.60
2022-09-26T17:12:22.662Z,2.53
2022-09-26T17:14:52.438Z,2.10
2022-09-26T17:17:31.417Z,1.43
2022-09-26T17:19:59.769Z,1.87
2022-09-26T17:22:27.857Z,2.00
2022-09-26T17:25:00.487Z,2.70
2022-09-26T17:27:32.864Z,2.00
2022-09-26T17:30:02.005Z,2.10
2022-09-26T17:32:30.703Z,2.77
2022-09-26T17:35:02.404Z,2.90
2022-09-26T17:37:29.612Z,4.77
2022-09-26T17:39:56.591Z,3.33
2022-09-26T17:42:27.519Z,3.20
2022-09-26T17:44:57.329Z,2.30
2022-09-26T17:47:26.321Z,1.80
2022-09-26T17:49:56.494Z,1.90
2022-09-26T17:52:33.794Z,1.87
2022-09-26T17:55:04.814Z,2.00
2022-09-26T17:57:42.053Z,1.80
2022-09-26T18:00:11.775Z,2.27
2022-09-26T18:02:43.805Z,2.13
2022-09-26T18:05:25.403Z,2.20
2022-09-26T18:07:55.380Z,1.97
2022-09-26T18:10:33.383Z,2.33
2022-09-26T18:13:03.131Z,2.90
2022-09-26T18:15:30.157Z,1.57
2022-09-26T18:17:57.173Z,2.73
2022-09-26T18:20:33.538Z,3.30
2022-09-26T18:23:28.873Z,3.10
2022-09-26T18:25:59.399Z,3.73
2022-09-26T18:28:26.549Z,2.10
2022-09-26T18:30:59.166Z,2.20
2022-09-26T18:33:28.759Z,2.00
2022-09-26T18:35:55.551Z,2.00
2022-09-26T18:38:22.347Z,2.23
2022-09-26T18:40:52.967Z,3.53
2022-09-26T18:43:30.312Z,2.50
2022-09-26T18:46:00.446Z,2.37
2022-09-26T18:48:34.872Z,2.27
2022-09-26T18:51:01.667Z,1.73
2022-09-26T18:53:37.267Z,2.70
2022-09-26T18:56:23.798Z,3.50
2022-09-26T18:58:50.745Z,2.30
2022-09-26T19:01:41.184Z,2.00
2022-09-26T19:04:16.306Z,1.83
2022-09-26T19:06:47.799Z,1.87
2022-09-26T19:09:17.065Z,2.83
2022-09-26T19:11:43.926Z,2.20
2022-09-26T19:14:26.624Z,2.20
2022-09-26T19:16:54.454Z,2.73
2022-09-26T19:19:22.384Z,2.70
2022-09-26T19:21:58.171Z,2.27
2022-09-26T19:24:51.229Z,2.60
2022-09-26T19:27:31.121Z,3.37
2022-09-26T19:30:11.243Z,3.83
2022-09-26T19:32:43.749Z,3.30
2022-09-26T19:35:16.313Z,5.10
2022-09-26T19:37:43.079Z,6.07
2022-09-26T19:40:13.596Z,3.27
2022-09-26T19:42:42.317Z,3.40
2022-09-26T19:45:13.676Z,3.23
2022-09-26T19:47:44.938Z,2.70
2022-09-26T19:50:18.184Z,2.40
2022-09-26T19:52:50.513Z,1.90
2022-09-26T19:55:39.821Z,4.87
2022-09-26T19:58:27.818Z,2.90
2022-09-26T20:00:57.982Z,3.90
2022-09-26T20:03:27.999Z,2.80
2022-09-26T20:05:55.520Z,2.33
2022-09-26T20:08:25.081Z,1.97
2022-09-26T20:10:53.194Z,2.20
2022-09-26T20:13:22.505Z,2.20
2022-09-26T20:15:52.413Z,2.23
2022-09-26T20:18:23.218Z,2.37
2022-09-26T20:20:55.755Z,2.27
2022-09-26T20:23:27.244Z,2.00
2022-09-26T20:25:57.150Z,2.30
2022-09-26T20:28:23.853Z,2.57
2022-09-26T20:31:01.117Z,2.70
2022-09-26T20:33:36.741Z,2.03
2022-09-26T20:36:05.390Z,2.43
2022-09-26T20:38:47.978Z,2.50
2022-09-26T20:41:30.205Z,2.80
2022-09-26T20:44:01.910Z,3.00
2022-09-26T20:46:34.777Z,3.30
2022-09-26T20:49:06.279Z,3.10
2022-09-26T20:51:55.749Z,3.00
2022-09-26T20:54:28.075Z,3.40
2022-09-26T20:56:55.969Z,3.30
2022-09-26T20:59:23.793Z,3.30
2022-09-26T21:01:52.831Z,3.17
2022-09-26T21:04:33.901Z,3.03
2022-09-26T21:07:00.662Z,3.00
2022-09-26T21:09:27.368Z,2.80
2022-09-26T21:11:54.337Z,3.00
2022-09-26T21:14:20.988Z,3.13
2022-09-26T21:16:57.340Z,2.60
2022-09-26T21:19:25.230Z,4.17
2022-09-26T21:21:52.230Z,3.30
2022-09-26T21:24:25.420Z,2.83
2022-09-26T21:26:52.299Z,3.10
2022-09-26T21:29:19.069Z,2.73
2022-09-26T21:31:50.154Z,2.40
2022-09-26T21:34:22.052Z,2.20
2022-09-26T21:36:50.877Z,2.60
2022-09-26T21:39:18.991Z,2.37
2022-09-26T21:41:53.467Z,2.57
2022-09-26T21:44:41.550Z,2.50
2022-09-26T21:47:13.400Z,2.27
2022-09-26T21:49:40.137Z,2.37
2022-09-26T21:52:21.932Z,2.20
2022-09-26T21:54:49.049Z,2.10
2022-09-26T21:57:35.620Z,2.30
2022-09-26T22:00:04.765Z,2.13
2022-09-26T22:02:38.818Z,2.00
2022-09-26T22:05:06.252Z,2.20
2022-09-26T22:07:36.490Z,2.03
2022-09-26T22:10:04.733Z,2.27
2022-09-26T22:12:34.625Z,2.20
2022-09-26T22:15:01.715Z,2.20
2022-09-26T22:17:37.835Z,2.23
2022-09-26T22:20:07.785Z,2.10
2022-09-26T22:22:38.077Z,2.17
2022-09-26T22:25:08.358Z,3.73
2022-09-26T22:27:38.931Z,2.70
2022-09-26T22:30:07.279Z,3.37
2022-09-26T22:32:36.729Z,2.83
2022-09-26T22:35:04.006Z,3.53
2022-09-26T22:37:30.926Z,2.80
2022-09-26T22:40:01.330Z,5.93
2022-09-26T22:42:28.297Z,2.40
2022-09-26T22:45:00.643Z,3.97
2022-09-26T22:47:27.586Z,3.80
2022-09-26T22:49:54.305Z,4.67
2022-09-26T22:52:20.967Z,4.50
2022-09-26T22:54:48.416Z,2.97
2022-09-26T22:57:18.019Z,4.10
2022-09-26T22:59:48.310Z,2.10
2022-09-26T23:02:15.354Z,2.20
2022-09-26T23:04:51.193Z,2.33
2022-09-26T23:07:19.465Z,2.60
2022-09-26T23:09:46.787Z,3.10
2022-09-26T23:12:14.425Z,2.93
2022-09-26T23:14:41.186Z,3.27
2022-09-26T23:17:08.426Z,3.20
2022-09-26T23:19:35.158Z,4.60
2022-09-26T23:22:02.233Z,2.77
2022-09-26T23:24:28.931Z,2.10
2022-09-26T23:26:58.503Z,2.27
2022-09-26T23:29:26.269Z,3.17
2022-09-26T23:32:02.145Z,3.70
2022-09-26T23:34:28.805Z,3.83
2022-09-26T23:37:04.965Z,3.13
2022-09-26T23:39:31.606Z,2.63
2022-09-26T23:41:59.126Z,3.50
2022-09-26T23:44:28.863Z,3.10
2022-09-26T23:46:55.593Z,2.53
2022-09-26T23:49:22.515Z,4.97
2022-09-26T23:51:52.701Z,4.40
2022-09-26T23:54:19.389Z,2.03
2022-09-26T23:56:46.317Z,3.03
2022-09-26T23:59:13.067Z,2.73
